sensor_id;sensor_type;location;lat;lon;timestamp;pressure;altitude;pressure_sealevel;temperature;humidity
52343;BME280;38277;51.972;4.624;2023-04-25T00:03:10;101340.0;;;7.8;75.0
52343;BME280;38277;51.972;4.624;2023-04-25T00:07:21;101330.0;;;7.8;75.0
52343;BME280;38277;51.972;4.624;2023-04-25T00:12:09;101340.0;;;7.7;75.0
52343;BME280;38277;51.972;4.624;2023-04-25T00:16:21;101340.0;;;7.7;75.0
52343;BME280;38277;51.972;4.624;2023-04-25T00:20:50;101340.0;;;7.7;75.0
52343;BME280;38277;51.972;4.624;2023-04-25T00:25:27;101350.0;;;7.6;75.0
52343;BME280;38277;51.972;4.624;2023-04-25T00:30:01;101350.0;;;7.6;75.0
52343;BME280;38277;51.972;4.624;2023-04-25T00:34:39;101350.0;;;7.5;75.0
52343;BME280;38277;51.972;4.624;2023-04-25T00:38:55;101340.0;;;7.5;75.0
52343;BME280;38277;51.972;4.624;2023-04-25T00:43:28;101340.0;;;7.4;75.0
52343;BME280;38277;51.972;4.624;2023-04-25T00:47:46;101360.0;;;7.3;75.0
52343;BME280;38277;51.972;4.624;2023-04-25T00:52:34;101350.0;;;7.3;75.5
52343;BME280;38277;51.972;4.624;2023-04-25T00:57:06;101360.0;;;7.3;75.5
52343;BME280;38277;51.972;4.624;2023-04-25T01:01:32;101360.0;;;7.3;75.5
52343;BME280;38277;51.972;4.624;2023-04-25T01:05:59;101370.0;;;7.3;75.5
52343;BME280;38277;51.972;4.624;2023-04-25T01:10:35;101370.0;;;7.3;76.0
52343;BME280;38277;51.972;4.624;2023-04-25T01:14:58;101370.0;;;7.3;76.0
52343;BME280;38277;51.972;4.624;2023-04-25T01:19:32;101370.0;;;7.3;76.0
52343;BME280;38277;51.972;4.624;2023-04-25T01:23:57;101370.0;;;7.4;76.0
52343;BME280;38277;51.972;4.624;2023-04-25T01:28:28;101380.0;;;7.4;76.5
52343;BME280;38277;51.972;4.624;2023-04-25T01:32:52;101380.0;;;7.4;76.0
52343;BME280;38277;51.972;4.624;2023-04-25T01:37:29;101390.0;;;7.4;76.0
52343;BME280;38277;51.972;4.624;2023-04-25T01:42:13;101390.0;;;7.3;76.0
52343;BME280;38277;51.972;4.624;2023-04-25T01:46:43;101390.0;;;7.3;76.0
52343;BME280;38277;51.972;4.624;2023-04-25T01:51:07;101390.0;;;7.2;76.0
52343;BME280;38277;51.972;4.624;2023-04-25T01:57:19;101390.0;;;7.2;76.0
52343;BME280;38277;51.972;4.624;2023-04-25T02:00:02;101400.0;;;7.1;76.0
52343;BME280;38277;51.972;4.624;2023-04-25T02:04:22;101400.0;;;7.1;76.0
52343;BME280;38277;51.972;4.624;2023-04-25T02:08:51;101400.0;;;7.1;76.0
52343;BME280;38277;51.972;4.624;2023-04-25T02:13:29;101400.0;;;7.2;75.5
52343;BME280;38277;51.972;4.624;2023-04-25T02:18:05;101400.0;;;7.2;75.5
52343;BME280;38277;51.972;4.624;2023-04-25T02:22:40;101400.0;;;7.3;75.5
52343;BME280;38277;51.972;4.624;2023-04-25T02:26:46;101400.0;;;7.4;75.0
52343;BME280;38277;51.972;4.624;2023-04-25T02:31:30;101390.0;;;7.4;74.5
52343;BME280;38277;51.972;4.624;2023-04-25T02:36:09;101400.0;;;7.4;74.0
52343;BME280;38277;51.972;4.624;2023-04-25T02:40:40;101400.0;;;7.5;74.0
52343;BME280;38277;51.972;4.624;2023-04-25T02:45:06;101400.0;;;7.5;73.5
52343;BME280;38277;51.972;4.624;2023-04-25T02:49:39;101410.0;;;7.6;73.0
52343;BME280;38277;51.972;4.624;2023-04-25T02:54:07;101400.0;;;7.6;72.5
52343;BME280;38277;51.972;4.624;2023-04-25T02:58:34;101400.0;;;7.6;72.5
52343;BME280;38277;51.972;4.624;2023-04-25T03:02:57;101390.0;;;7.7;72.5
52343;BME280;38277;51.972;4.624;2023-04-25T03:07:20;101390.0;;;7.7;72.5
52343;BME280;38277;51.972;4.624;2023-04-25T03:12:06;101420.0;;;7.7;72.0
52343;BME280;38277;51.972;4.624;2023-04-25T03:16:19;101400.0;;;7.7;70.5
52343;BME280;38277;51.972;4.624;2023-04-25T03:21:11;101400.0;;;7.7;70.0
52343;BME280;38277;51.972;4.624;2023-04-25T03:25:28;101410.0;;;7.7;70.0
52343;BME280;38277;51.972;4.624;2023-04-25T03:30:11;101400.0;;;7.7;70.0
52343;BME280;38277;51.972;4.624;2023-04-25T03:34:22;101410.0;;;7.8;70.5
52343;BME280;38277;51.972;4.624;2023-04-25T03:39:01;101420.0;;;7.8;70.5
52343;BME280;38277;51.972;4.624;2023-04-25T03:43:34;101430.0;;;7.9;70.5
52343;BME280;38277;51.972;4.624;2023-04-25T03:48:07;101430.0;;;7.9;70.5
52343;BME280;38277;51.972;4.624;2023-04-25T03:52:23;101420.0;;;7.9;70.5
52343;BME280;38277;51.972;4.624;2023-04-25T03:57:13;101430.0;;;7.9;71.0
52343;BME280;38277;51.972;4.624;2023-04-25T04:01:16;101440.0;;;8.0;71.0
52343;BME280;38277;51.972;4.624;2023-04-25T04:05:51;101440.0;;;8.0;71.5
52343;BME280;38277;51.972;4.624;2023-04-25T04:10:38;101440.0;;;8.0;72.0
52343;BME280;38277;51.972;4.624;2023-04-25T04:14:45;101450.0;;;8.0;72.0
52343;BME280;38277;51.972;4.624;2023-04-25T04:19:37;101440.0;;;8.0;72.0
52343;BME280;38277;51.972;4.624;2023-04-25T04:23:50;101450.0;;;8.1;72.5
52343;BME280;38277;51.972;4.624;2023-04-25T04:28:22;101450.0;;;8.1;72.5
52343;BME280;38277;51.972;4.624;2023-04-25T04:33:05;101460.0;;;8.1;72.5
52343;BME280;38277;51.972;4.624;2023-04-25T04:37:24;101450.0;;;8.1;73.0
52343;BME280;38277;51.972;4.624;2023-04-25T04:41:56;101450.0;;;8.1;73.0
52343;BME280;38277;51.972;4.624;2023-04-25T04:46:37;101460.0;;;8.1;73.0
52343;BME280;38277;51.972;4.624;2023-04-25T04:50:52;101470.0;;;8.2;73.0
52343;BME280;38277;51.972;4.624;2023-04-25T04:55:40;101470.0;;;8.2;73.5
52343;BME280;38277;51.972;4.624;2023-04-25T04:59:57;101480.0;;;8.3;73.0
52343;BME280;38277;51.972;4.624;2023-04-25T05:04:16;101490.0;;;8.2;72.0
52343;BME280;38277;51.972;4.624;2023-04-25T05:15:02;101510.0;;;8.2;72.0
52343;BME280;38277;51.972;4.624;2023-04-25T05:17:57;101510.0;;;8.2;72.5
52343;BME280;38277;51.972;4.624;2023-04-25T05:22:32;101520.0;;;8.2;72.5
52343;BME280;38277;51.972;4.624;2023-04-25T05:27:11;101520.0;;;8.3;72.5
52343;BME280;38277;51.972;4.624;2023-04-25T05:31:19;101530.0;;;8.3;72.5
52343;BME280;38277;51.972;4.624;2023-04-25T05:35:54;101540.0;;;8.3;72.0
52343;BME280;38277;51.972;4.624;2023-04-25T05:40:31;101540.0;;;8.3;72.0
52343;BME280;38277;51.972;4.624;2023-04-25T05:45:11;101550.0;;;8.3;72.0
52343;BME280;38277;51.972;4.624;2023-04-25T05:49:42;101550.0;;;8.4;72.0
52343;BME280;38277;51.972;4.624;2023-04-25T05:53:55;101560.0;;;8.3;71.5
52343;BME280;38277;51.972;4.624;2023-04-25T05:58:19;101580.0;;;8.3;71.5
52343;BME280;38277;51.972;4.624;2023-04-25T06:02:56;101570.0;;;8.3;71.5
52343;BME280;38277;51.972;4.624;2023-04-25T06:07:40;101580.0;;;8.3;71.0
52343;BME280;38277;51.972;4.624;2023-04-25T06:12:03;101580.0;;;8.4;70.5
52343;BME280;38277;51.972;4.624;2023-04-25T06:16:41;101610.0;;;8.4;69.0
52343;BME280;38277;51.972;4.624;2023-04-25T06:25:42;101620.0;;;8.3;67.5
52343;BME280;38277;51.972;4.624;2023-04-25T06:30:09;101630.0;;;8.2;68.0
52343;BME280;38277;51.972;4.624;2023-04-25T06:34:25;101610.0;;;8.0;69.0
52343;BME280;38277;51.972;4.624;2023-04-25T06:39:02;101620.0;;;8.0;70.0
52343;BME280;38277;51.972;4.624;2023-04-25T06:43:43;101610.0;;;8.2;70.0
52343;BME280;38277;51.972;4.624;2023-04-25T06:47:55;101610.0;;;8.4;70.5
52343;BME280;38277;51.972;4.624;2023-04-25T06:52:45;101620.0;;;8.6;70.0
52343;BME280;38277;51.972;4.624;2023-04-25T06:57:07;101620.0;;;8.7;70.0
52343;BME280;38277;51.972;4.624;2023-04-25T07:01:45;101630.0;;;8.8;70.0
52343;BME280;38277;51.972;4.624;2023-04-25T07:06:03;101630.0;;;9.0;70.0
52343;BME280;38277;51.972;4.624;2023-04-25T07:10:59;101620.0;;;9.2;69.5
52343;BME280;38277;51.972;4.624;2023-04-25T07:17:01;101630.0;;;9.3;68.5
52343;BME280;38277;51.972;4.624;2023-04-25T07:24:14;101630.0;;;9.4;67.0
52343;BME280;38277;51.972;4.624;2023-04-25T07:40:22;101650.0;;;9.1;66.0
52343;BME280;38277;51.972;4.624;2023-04-25T07:43:23;101650.0;;;9.0;66.5
52343;BME280;38277;51.972;4.624;2023-04-25T07:49:26;101640.0;;;9.1;67.0
52343;BME280;38277;51.972;4.624;2023-04-25T07:55:45;101650.0;;;9.5;65.5
52343;BME280;38277;51.972;4.624;2023-04-25T08:01:49;101660.0;;;9.9;65.0
52343;BME280;38277;51.972;4.624;2023-04-25T08:08:53;101670.0;;;10.1;59.0
52343;BME280;38277;51.972;4.624;2023-04-25T08:14:55;101680.0;;;10.1;57.5
52343;BME280;38277;51.972;4.624;2023-04-25T08:20:57;101700.0;;;10.1;56.5
52343;BME280;38277;51.972;4.624;2023-04-25T08:26:59;101700.0;;;10.5;55.5
52343;BME280;38277;51.972;4.624;2023-04-25T08:33:01;101710.0;;;10.6;54.5
52343;BME280;38277;51.972;4.624;2023-04-25T08:39:03;101720.0;;;10.7;53.5
52343;BME280;38277;51.972;4.624;2023-04-25T08:45:11;101730.0;;;10.4;53.5
52343;BME280;38277;51.972;4.624;2023-04-25T08:51:17;101720.0;;;10.3;54.5
52343;BME280;38277;51.972;4.624;2023-04-25T08:58:42;101750.0;;;10.7;55.5
52343;BME280;38277;51.972;4.624;2023-04-25T09:04:44;101760.0;;;10.7;53.0
52343;BME280;38277;51.972;4.624;2023-04-25T09:12:10;101760.0;;;10.9;51.0
52343;BME280;38277;51.972;4.624;2023-04-25T09:18:12;101770.0;;;11.0;51.5
52343;BME280;38277;51.972;4.624;2023-04-25T09:25:24;101780.0;;;11.5;50.5
52343;BME280;38277;51.972;4.624;2023-04-25T09:31:26;101780.0;;;11.7;49.5
52343;BME280;38277;51.972;4.624;2023-04-25T09:37:29;101790.0;;;11.7;48.5
52343;BME280;38277;51.972;4.624;2023-04-25T09:43:38;101810.0;;;11.4;55.5
52343;BME280;38277;51.972;4.624;2023-04-25T09:49:40;101810.0;;;11.6;55.5
52343;BME280;38277;51.972;4.624;2023-04-25T09:57:09;101810.0;;;11.8;54.5
52343;BME280;38277;51.972;4.624;2023-04-25T10:03:05;101820.0;;;11.7;55.0
52343;BME280;38277;51.972;4.624;2023-04-25T10:13:25;101830.0;;;12.1;54.0
52343;BME280;38277;51.972;4.624;2023-04-25T10:16:27;101830.0;;;12.6;53.0
52343;BME280;38277;51.972;4.624;2023-04-25T10:22:34;101850.0;;;12.6;50.0
52343;BME280;38277;51.972;4.624;2023-04-25T10:28:54;101840.0;;;11.9;51.5
52343;BME280;38277;51.972;4.624;2023-04-25T10:34:39;101840.0;;;11.8;53.0
52343;BME280;38277;51.972;4.624;2023-04-25T10:41:56;101850.0;;;13.0;48.5
52343;BME280;38277;51.972;4.624;2023-04-25T10:47:54;101840.0;;;13.0;47.0
52343;BME280;38277;51.972;4.624;2023-04-25T10:55:49;101840.0;;;13.7;45.5
52343;BME280;38277;51.972;4.624;2023-04-25T11:01:36;101820.0;;;14.4;42.5
52343;BME280;38277;51.972;4.624;2023-04-25T11:07:50;101830.0;;;14.3;40.0
52343;BME280;38277;51.972;4.624;2023-04-25T11:13:47;101830.0;;;14.6;40.5
52343;BME280;38277;51.972;4.624;2023-04-25T11:19:48;101830.0;;;16.4;36.5
52343;BME280;38277;51.972;4.624;2023-04-25T11:27:15;101840.0;;;19.1;32.0
52343;BME280;38277;51.972;4.624;2023-04-25T11:36:19;101840.0;;;20.1;31.5
52343;BME280;38277;51.972;4.624;2023-04-25T11:40:20;101850.0;;;18.9;31.0
52343;BME280;38277;51.972;4.624;2023-04-25T11:46:22;101850.0;;;20.1;29.0
52343;BME280;38277;51.972;4.624;2023-04-25T11:52:24;101840.0;;;19.8;29.5
52343;BME280;38277;51.972;4.624;2023-04-25T12:01:48;101850.0;;;23.0;26.0
52343;BME280;38277;51.972;4.624;2023-04-25T12:07:40;101860.0;;;20.6;27.0
52343;BME280;38277;51.972;4.624;2023-04-25T12:12:05;101860.0;;;20.6;28.5
52343;BME280;38277;51.972;4.624;2023-04-25T12:18:07;101850.0;;;22.0;27.0
52343;BME280;38277;51.972;4.624;2023-04-25T12:28:24;101860.0;;;23.3;23.5
52343;BME280;38277;51.972;4.624;2023-04-25T12:34:24;101880.0;;;21.1;25.0
52343;BME280;38277;51.972;4.624;2023-04-25T12:44:58;101890.0;;;18.6;28.5
52343;BME280;38277;51.972;4.624;2023-04-25T12:52:21;101890.0;;;23.2;24.5
52343;BME280;38277;51.972;4.624;2023-04-25T12:58:25;101890.0;;;24.2;22.5
52343;BME280;38277;51.972;4.624;2023-04-25T13:06:03;101900.0;;;21.0;26.5
52343;BME280;38277;51.972;4.624;2023-04-25T13:12:05;101900.0;;;21.2;26.0
52343;BME280;38277;51.972;4.624;2023-04-25T13:19:24;101900.0;;;21.3;26.5
52343;BME280;38277;51.972;4.624;2023-04-25T13:23:48;101890.0;;;23.2;23.0
52343;BME280;38277;51.972;4.624;2023-04-25T13:28:27;101900.0;;;21.3;24.5
52343;BME280;38277;51.972;4.624;2023-04-25T13:32:58;101910.0;;;19.8;27.0
52343;BME280;38277;51.972;4.624;2023-04-25T13:37:24;101910.0;;;20.5;27.0
52343;BME280;38277;51.972;4.624;2023-04-25T13:42:12;101910.0;;;19.2;29.0
52343;BME280;38277;51.972;4.624;2023-04-25T13:46:27;101910.0;;;17.7;31.0
52343;BME280;38277;51.972;4.624;2023-04-25T13:51:13;101920.0;;;16.5;33.5
52343;BME280;38277;51.972;4.624;2023-04-25T13:55:21;101920.0;;;18.0;33.0
52343;BME280;38277;51.972;4.624;2023-04-25T13:59:54;101920.0;;;20.5;29.0
52343;BME280;38277;51.972;4.624;2023-04-25T14:04:40;101920.0;;;22.2;26.0
52343;BME280;38277;51.972;4.624;2023-04-25T14:09:13;101910.0;;;23.8;24.5
52343;BME280;38277;51.972;4.624;2023-04-25T14:13:17;101920.0;;;23.2;24.0
52343;BME280;38277;51.972;4.624;2023-04-25T14:17:53;101910.0;;;22.3;24.5
52343;BME280;38277;51.972;4.624;2023-04-25T14:22:28;101920.0;;;23.8;22.5
52343;BME280;38277;51.972;4.624;2023-04-25T14:26:57;101910.0;;;24.0;22.5
52343;BME280;38277;51.972;4.624;2023-04-25T14:31:19;101910.0;;;23.5;23.0
52343;BME280;38277;51.972;4.624;2023-04-25T14:35:57;101930.0;;;22.7;24.0
52343;BME280;38277;51.972;4.624;2023-04-25T14:40:37;101920.0;;;24.0;21.5
52343;BME280;38277;51.972;4.624;2023-04-25T14:45:06;101930.0;;;25.3;20.5
52343;BME280;38277;51.972;4.624;2023-04-25T14:49:17;101920.0;;;26.5;19.0
52343;BME280;38277;51.972;4.624;2023-04-25T14:54:06;101920.0;;;27.2;19.0
52343;BME280;38277;51.972;4.624;2023-04-25T14:58:28;101920.0;;;27.3;18.5
52343;BME280;38277;51.972;4.624;2023-04-25T15:03:11;101930.0;;;27.1;19.0
52343;BME280;38277;51.972;4.624;2023-04-25T15:07:26;101920.0;;;27.1;19.0
52343;BME280;38277;51.972;4.624;2023-04-25T15:12:07;101920.0;;;26.3;19.0
52343;BME280;38277;51.972;4.624;2023-04-25T15:16:29;101930.0;;;26.4;19.0
52343;BME280;38277;51.972;4.624;2023-04-25T15:21:02;101950.0;;;24.5;20.5
52343;BME280;38277;51.972;4.624;2023-04-25T15:25:16;101950.0;;;22.7;23.5
52343;BME280;38277;51.972;4.624;2023-04-25T15:29:49;101950.0;;;22.6;24.0
52343;BME280;38277;51.972;4.624;2023-04-25T15:34:34;101960.0;;;20.4;25.5
52343;BME280;38277;51.972;4.624;2023-04-25T15:39:00;101950.0;;;18.4;28.0
52343;BME280;38277;51.972;4.624;2023-04-25T15:43:46;101960.0;;;17.3;30.0
52343;BME280;38277;51.972;4.624;2023-04-25T15:48:11;101970.0;;;17.8;29.5
52343;BME280;38277;51.972;4.624;2023-04-25T15:52:40;101960.0;;;18.6;29.0
52343;BME280;38277;51.972;4.624;2023-04-25T15:57:00;101960.0;;;20.4;26.5
52343;BME280;38277;51.972;4.624;2023-04-25T16:01:22;101960.0;;;21.7;25.5
52343;BME280;38277;51.972;4.624;2023-04-25T16:06:06;101970.0;;;22.1;22.5
52343;BME280;38277;51.972;4.624;2023-04-25T16:10:37;101990.0;;;20.8;24.5
52343;BME280;38277;51.972;4.624;2023-04-25T16:14:54;101970.0;;;19.6;26.5
52343;BME280;38277;51.972;4.624;2023-04-25T16:19:40;101990.0;;;18.3;28.0
52343;BME280;38277;51.972;4.624;2023-04-25T16:23:51;101990.0;;;17.0;30.0
52343;BME280;38277;51.972;4.624;2023-04-25T16:28:29;102010.0;;;15.8;32.0
52343;BME280;38277;51.972;4.624;2023-04-25T16:33:03;102010.0;;;14.6;35.0
52343;BME280;38277;51.972;4.624;2023-04-25T16:37:25;102010.0;;;14.0;36.5
52343;BME280;38277;51.972;4.624;2023-04-25T16:41:46;102020.0;;;13.4;36.5
52343;BME280;38277;51.972;4.624;2023-04-25T16:46:44;102010.0;;;13.0;37.0
52343;BME280;38277;51.972;4.624;2023-04-25T16:50:49;102020.0;;;12.7;37.5
52343;BME280;38277;51.972;4.624;2023-04-25T16:55:40;102010.0;;;12.8;38.0
52343;BME280;38277;51.972;4.624;2023-04-25T17:01:49;102010.0;;;13.2;37.5
52343;BME280;38277;51.972;4.624;2023-04-25T17:04:19;102000.0;;;13.3;37.0
52343;BME280;38277;51.972;4.624;2023-04-25T17:08:46;102010.0;;;13.7;37.5
52343;BME280;38277;51.972;4.624;2023-04-25T17:13:37;102010.0;;;14.0;37.0
52343;BME280;38277;51.972;4.624;2023-04-25T17:18:02;102030.0;;;14.0;37.5
52343;BME280;38277;51.972;4.624;2023-04-25T17:22:36;102030.0;;;13.9;37.5
52343;BME280;38277;51.972;4.624;2023-04-25T17:26:53;102040.0;;;14.0;37.5
52343;BME280;38277;51.972;4.624;2023-04-25T17:31:30;102030.0;;;13.9;38.0
52343;BME280;38277;51.972;4.624;2023-04-25T17:35:53;102040.0;;;14.2;37.0
52343;BME280;38277;51.972;4.624;2023-04-25T17:40:30;102040.0;;;14.3;37.0
52343;BME280;38277;51.972;4.624;2023-04-25T17:44:49;102040.0;;;14.4;36.5
52343;BME280;38277;51.972;4.624;2023-04-25T17:49:35;102040.0;;;14.3;37.0
52343;BME280;38277;51.972;4.624;2023-04-25T17:53:59;102040.0;;;13.5;37.5
52343;BME280;38277;51.972;4.624;2023-04-25T17:58:20;102050.0;;;12.8;39.0
52343;BME280;38277;51.972;4.624;2023-04-25T18:03:06;102060.0;;;12.1;40.5
52343;BME280;38277;51.972;4.624;2023-04-25T18:07:43;102060.0;;;11.6;42.0
52343;BME280;38277;51.972;4.624;2023-04-25T18:12:13;102060.0;;;11.2;43.0
52343;BME280;38277;51.972;4.624;2023-04-25T18:16:26;102060.0;;;11.0;44.0
52343;BME280;38277;51.972;4.624;2023-04-25T18:20:50;102070.0;;;10.7;44.5
52343;BME280;38277;51.972;4.624;2023-04-25T18:25:32;102080.0;;;10.5;45.0
52343;BME280;38277;51.972;4.624;2023-04-25T18:31:45;102070.0;;;10.3;45.5
52343;BME280;38277;51.972;4.624;2023-04-25T18:34:37;102080.0;;;10.1;45.5
52343;BME280;38277;51.972;4.624;2023-04-25T18:38:59;102080.0;;;9.9;46.0
52343;BME280;38277;51.972;4.624;2023-04-25T18:43:21;102090.0;;;9.7;47.0
52343;BME280;38277;51.972;4.624;2023-04-25T18:48:14;102080.0;;;9.6;48.0
52343;BME280;38277;51.972;4.624;2023-04-25T18:52:21;102100.0;;;9.4;48.5
52343;BME280;38277;51.972;4.624;2023-04-25T18:57:12;102090.0;;;9.2;50.0
52343;BME280;38277;51.972;4.624;2023-04-25T19:01:26;102090.0;;;9.1;50.5
52343;BME280;38277;51.972;4.624;2023-04-25T19:07:44;102090.0;;;9.0;50.5
52343;BME280;38277;51.972;4.624;2023-04-25T19:10:26;102100.0;;;8.9;51.0
52343;BME280;38277;51.972;4.624;2023-04-25T19:15:12;102100.0;;;8.8;52.0
52343;BME280;38277;51.972;4.624;2023-04-25T19:19:33;102110.0;;;8.8;52.0
52343;BME280;38277;51.972;4.624;2023-04-25T19:23:54;102110.0;;;8.7;52.5
52343;BME280;38277;51.972;4.624;2023-04-25T19:28:33;102120.0;;;8.6;53.0
52343;BME280;38277;51.972;4.624;2023-04-25T19:33:01;102110.0;;;8.6;53.5
52343;BME280;38277;51.972;4.624;2023-04-25T19:37:44;102120.0;;;8.6;53.0
52343;BME280;38277;51.972;4.624;2023-04-25T19:41:54;102120.0;;;8.5;53.0
52343;BME280;38277;51.972;4.624;2023-04-25T19:46:15;102130.0;;;8.4;53.0
52343;BME280;38277;51.972;4.624;2023-04-25T19:50:48;102130.0;;;8.3;53.5
52343;BME280;38277;51.972;4.624;2023-04-25T19:55:21;102120.0;;;8.3;53.5
52343;BME280;38277;51.972;4.624;2023-04-25T19:59:47;102130.0;;;8.2;54.0
52343;BME280;38277;51.972;4.624;2023-04-25T20:04:19;102150.0;;;8.1;54.0
52343;BME280;38277;51.972;4.624;2023-04-25T20:09:01;102140.0;;;8.0;54.5
52343;BME280;38277;51.972;4.624;2023-04-25T20:13:29;102140.0;;;8.0;54.5
52343;BME280;38277;51.972;4.624;2023-04-25T20:19:34;102130.0;;;7.9;55.0
52343;BME280;38277;51.972;4.624;2023-04-25T20:22:16;102140.0;;;7.8;55.0
52343;BME280;38277;51.972;4.624;2023-04-25T20:27:00;102140.0;;;7.8;55.5
52343;BME280;38277;51.972;4.624;2023-04-25T20:31:37;102140.0;;;7.7;55.5
52343;BME280;38277;51.972;4.624;2023-04-25T20:36:03;102140.0;;;7.7;56.0
52343;BME280;38277;51.972;4.624;2023-04-25T20:42:04;102140.0;;;7.6;56.0
52343;BME280;38277;51.972;4.624;2023-04-25T20:49:36;102130.0;;;7.5;56.0
52343;BME280;38277;51.972;4.624;2023-04-25T20:55:38;102140.0;;;7.5;56.5
52343;BME280;38277;51.972;4.624;2023-04-25T21:03:04;102130.0;;;7.4;56.5
52343;BME280;38277;51.972;4.624;2023-04-25T21:09:05;102140.0;;;7.4;57.0
52343;BME280;38277;51.972;4.624;2023-04-25T21:16:41;102150.0;;;7.3;57.5
52343;BME280;38277;51.972;4.624;2023-04-25T21:30:11;102140.0;;;7.1;58.0
52343;BME280;38277;51.972;4.624;2023-04-25T21:36:10;102140.0;;;7.1;58.5
52343;BME280;38277;51.972;4.624;2023-04-25T21:43:45;102140.0;;;7.0;59.0
52343;BME280;38277;51.972;4.624;2023-04-25T21:49:47;102150.0;;;7.0;59.5
52343;BME280;38277;51.972;4.624;2023-04-25T21:57:03;102150.0;;;7.2;60.0
52343;BME280;38277;51.972;4.624;2023-04-25T22:03:05;102160.0;;;7.3;60.0
52343;BME280;38277;51.972;4.624;2023-04-25T22:10:18;102170.0;;;7.5;60.5
52343;BME280;38277;51.972;4.624;2023-04-25T22:16:20;102170.0;;;7.5;61.0
52343;BME280;38277;51.972;4.624;2023-04-25T22:23:49;102170.0;;;7.6;61.0
52343;BME280;38277;51.972;4.624;2023-04-25T22:29:51;102180.0;;;7.6;61.0
52343;BME280;38277;51.972;4.624;2023-04-25T22:35:53;102170.0;;;7.7;61.5
52343;BME280;38277;51.972;4.624;2023-04-25T22:42:12;102180.0;;;7.6;61.0
52343;BME280;38277;51.972;4.624;2023-04-25T22:48:14;102170.0;;;7.5;61.5
52343;BME280;38277;51.972;4.624;2023-04-25T22:55:39;102170.0;;;7.3;61.5
52343;BME280;38277;51.972;4.624;2023-04-25T23:01:41;102180.0;;;7.2;62.0
52343;BME280;38277;51.972;4.624;2023-04-25T23:08:54;102180.0;;;7.0;63.0
52343;BME280;38277;51.972;4.624;2023-04-25T23:14:56;102180.0;;;7.0;63.5
52343;BME280;38277;51.972;4.624;2023-04-25T23:20:58;102180.0;;;7.0;63.5
52343;BME280;38277;51.972;4.624;2023-04-25T23:27:00;102180.0;;;6.8;64.5
52343;BME280;38277;51.972;4.624;2023-04-25T23:33:02;102170.0;;;6.8;64.5
52343;BME280;38277;51.972;4.624;2023-04-25T23:40:33;102170.0;;;6.6;65.0
52343;BME280;38277;51.972;4.624;2023-04-25T23:46:35;102160.0;;;6.6;65.0
52343;BME280;38277;51.972;4.624;2023-04-25T23:52:37;102160.0;;;6.5;65.0
52343;BME280;38277;51.972;4.624;2023-04-25T23:58:40;102180.0;;;6.7;65.5
